Bernard A — TCWN3 — position and weather

sailwx.info

Track history (hours):
 
Tides and Currents Weather Stations Pressure Air Temp Water Temp Dewpoint Dewpoint Depression Visibility Wind Speed Wind Dir Waves Ship Positions

Bernard A

Last reported at 2014-Oct-31 13:27 UTC. Time now 2014-Oct-31 13:46 UTC.
Position N 40°46' E 028°37'.

Length 184 m; draft 8 m.

Type: Ship (hazmat cat A). MMSI: 271040008.

Date/timePositionNaut miles runAvg speedWind from/ knotsBaromVisibWave heightAir tempDewpointWater temp
2014-Oct-31 13:27N 40°46' E 028°37'12 5.8
2014-Oct-31 11:27N 40°35' E 028°42'1 1.4
2014-Oct-31 10:31N 40°37' E 028°42'2 1.7
2014-Oct-31 09:26N 40°38' E 028°41'2 1.7
2014-Oct-31 08:33N 40°40' E 028°41'2 1.9
2014-Oct-31 07:31N 40°42' E 028°41'2 2.3
2014-Oct-31 06:27N 40°44' E 028°40'2 2.6
2014-Oct-31 05:31N 40°47' E 028°40'1 0.9
2014-Oct-31 04:28N 40°47' E 028°41'6 6.0
2014-Oct-31 03:33N 40°44' E 028°47'2 1.5
2014-Oct-31 02:33N 40°45' E 028°47'1 1.2
2014-Oct-31 01:33N 40°46' E 028°47'1 1.2
2014-Oct-31 00:31N 40°48' E 028°47'1 1.1
2014-Oct-30 23:24N 40°49' E 028°46'5 5.5
2014-Oct-30 22:33N 40°44' E 028°47'1 1.1
2014-Oct-30 21:33N 40°45' E 028°47'1 1.1
2014-Oct-30 20:33N 40°46' E 028°47'1 1.2
2014-Oct-30 19:31N 40°47' E 028°47'1 1.4
2014-Oct-30 18:32N 40°48' E 028°49'5 3.9
2014-Oct-30 17:22N 40°44' E 028°48'1 1.0
2014-Oct-30 16:33N 40°45' E 028°48'2 1.6
2014-Oct-30 15:32N 40°46' E 028°49'2 1.8
2014-Oct-30 14:33N 40°48' E 028°51'1 1.1
2014-Oct-30 13:33N 40°48' E 028°50'1110.7
2014-Oct-30 12:29N 40°58' E 028°41'1 0.1
2014-Oct-30 02:31N 40°56' E 028°40'0 0.0
2014-Oct-29 07:21N 40°56' E 028°40'2 0.3
2014-Oct-29 00:29N 40°58' E 028°41'36 8.6
2014-Oct-28 20:20N 40°25' E 028°60'4 3.5
2014-Oct-28 19:12N 40°25' E 029°05'0 0.0
2014-Oct-28 18:18N 40°25' E 029°05'0 0.0
2014-Oct-28 03:17N 40°25' E 029°05'2 3.1
2014-Oct-28 02:33N 40°26' E 029°02'17 8.7
2014-Oct-28 00:33N 40°34' E 028°42'1813.1
2014-Oct-27 23:10N 40°52' E 028°40'5 0.2
2014-Oct-26 17:23N 40°58' E 028°40'0 0.0
2014-Oct-26 15:05N 40°58' E 028°40'3 4.6
2014-Oct-26 14:29N 40°55' E 028°39'  
2014-Oct-23 21:13N 36°58' E 013°33'22313.4
2014-Oct-23 04:32N 38°54' E 009°32'1212.1
2014-Oct-23 03:33N 39°01' E 009°19'1212.2
2014-Oct-23 02:33N 39°08' E 009°06'6 5.5
2014-Oct-23 01:32N 39°13' E 009°04'0 0.0
2014-Oct-23 00:32N 39°13' E 009°04'0 0.0
2014-Oct-22 23:32N 39°13' E 009°04'0 0.0
2014-Oct-22 22:32N 39°13' E 009°04'0 0.0
2014-Oct-22 21:32N 39°13' E 009°04'0 0.0
2014-Oct-22 20:32N 39°13' E 009°04'0 0.0
2014-Oct-22 19:32N 39°13' E 009°04'0 0.0
2014-Oct-22 18:32N 39°13' E 009°04'0 0.0
2014-Oct-22 17:32N 39°13' E 009°04'0 0.0
2014-Oct-22 16:32N 39°13' E 009°04'0 0.0
2014-Oct-22 15:32N 39°13' E 009°04'0 0.0
2014-Oct-22 14:32N 39°13' E 009°04'0 0.0
2014-Oct-22 13:32N 39°13' E 009°04'0 0.0
2014-Oct-22 12:32N 39°13' E 009°04'0 0.0
2014-Oct-22 11:32N 39°13' E 009°04'0 0.0
2014-Oct-22 10:32N 39°13' E 009°04'0 0.0
2014-Oct-22 09:32N 39°13' E 009°04'0 0.0
2014-Oct-22 08:29N 39°13' E 009°04'0 0.0
2014-Oct-22 07:32N 39°13' E 009°04'0 0.0
2014-Oct-22 06:33N 39°13' E 009°04'1 1.0
2014-Oct-22 05:33N 39°12' E 009°05'4 4.2
2014-Oct-22 04:33N 39°08' E 009°06'5 5.2
2014-Oct-22 03:33N 39°03' E 009°08'1110.6
2014-Oct-22 02:33N 38°53' E 009°06'2 2.0
2014-Oct-22 01:32N 38°54' E 009°03'2 1.7
2014-Oct-22 00:33N 38°54' E 009°01'5 5.4
2014-Oct-21 23:32N 38°50' E 008°57'1212.2
2014-Oct-21 22:32N 38°46' E 008°42'1612.5
2014-Oct-21 21:15N 38°42' E 008°22'1115.1
2014-Oct-21 20:33N 38°39' E 008°09'  
Track history (hours):
 
Tides and Currents Weather Stations Pressure Air Temp Water Temp Dewpoint Dewpoint Depression Visibility Wind Speed Wind Dir Waves Ship Positions

Bernard A

Last reported at 2014-Oct-31 13:27 UTC. Time now 2014-Oct-31 13:46 UTC.
Position N 40°46' E 028°37'.

Length 184 m; draft 8 m.

Type: Ship (hazmat cat A). MMSI: 271040008.

Date/timePositionNaut miles runAvg speedWind from/ knotsBaromVisibWave heightAir tempDewpointWater temp
2014-Oct-31 13:27N 40°46' E 028°37'12 5.8
2014-Oct-31 11:27N 40°35' E 028°42'1 1.4
2014-Oct-31 10:31N 40°37' E 028°42'2 1.7
2014-Oct-31 09:26N 40°38' E 028°41'2 1.7
2014-Oct-31 08:33N 40°40' E 028°41'2 1.9
2014-Oct-31 07:31N 40°42' E 028°41'2 2.3
2014-Oct-31 06:27N 40°44' E 028°40'2 2.6
2014-Oct-31 05:31N 40°47' E 028°40'1 0.9
2014-Oct-31 04:28N 40°47' E 028°41'6 6.0
2014-Oct-31 03:33N 40°44' E 028°47'2 1.5
2014-Oct-31 02:33N 40°45' E 028°47'1 1.2
2014-Oct-31 01:33N 40°46' E 028°47'1 1.2
2014-Oct-31 00:31N 40°48' E 028°47'1 1.1
2014-Oct-30 23:24N 40°49' E 028°46'5 5.5
2014-Oct-30 22:33N 40°44' E 028°47'1 1.1
2014-Oct-30 21:33N 40°45' E 028°47'1 1.1
2014-Oct-30 20:33N 40°46' E 028°47'1 1.2
2014-Oct-30 19:31N 40°47' E 028°47'1 1.4
2014-Oct-30 18:32N 40°48' E 028°49'5 3.9
2014-Oct-30 17:22N 40°44' E 028°48'1 1.0
2014-Oct-30 16:33N 40°45' E 028°48'2 1.6
2014-Oct-30 15:32N 40°46' E 028°49'2 1.8
2014-Oct-30 14:33N 40°48' E 028°51'1 1.1
2014-Oct-30 13:33N 40°48' E 028°50'1110.7
2014-Oct-30 12:29N 40°58' E 028°41'1 0.1
2014-Oct-30 02:31N 40°56' E 028°40'0 0.0
2014-Oct-29 07:21N 40°56' E 028°40'2 0.3
2014-Oct-29 00:29N 40°58' E 028°41'36 8.6
2014-Oct-28 20:20N 40°25' E 028°60'4 3.5
2014-Oct-28 19:12N 40°25' E 029°05'0 0.0
2014-Oct-28 18:18N 40°25' E 029°05'0 0.0
2014-Oct-28 03:17N 40°25' E 029°05'2 3.1
2014-Oct-28 02:33N 40°26' E 029°02'17 8.7
2014-Oct-28 00:33N 40°34' E 028°42'1813.1
2014-Oct-27 23:10N 40°52' E 028°40'5 0.2
2014-Oct-26 17:23N 40°58' E 028°40'0 0.0
2014-Oct-26 15:05N 40°58' E 028°40'3 4.6
2014-Oct-26 14:29N 40°55' E 028°39'  
2014-Oct-23 21:13N 36°58' E 013°33'22313.4
2014-Oct-23 04:32N 38°54' E 009°32'1212.1
2014-Oct-23 03:33N 39°01' E 009°19'1212.2
2014-Oct-23 02:33N 39°08' E 009°06'6 5.5
2014-Oct-23 01:32N 39°13' E 009°04'0 0.0
2014-Oct-23 00:32N 39°13' E 009°04'0 0.0
2014-Oct-22 23:32N 39°13' E 009°04'0 0.0
2014-Oct-22 22:32N 39°13' E 009°04'0 0.0
2014-Oct-22 21:32N 39°13' E 009°04'0 0.0
2014-Oct-22 20:32N 39°13' E 009°04'0 0.0
2014-Oct-22 19:32N 39°13' E 009°04'0 0.0
2014-Oct-22 18:32N 39°13' E 009°04'0 0.0
2014-Oct-22 17:32N 39°13' E 009°04'0 0.0
2014-Oct-22 16:32N 39°13' E 009°04'0 0.0
2014-Oct-22 15:32N 39°13' E 009°04'0 0.0
2014-Oct-22 14:32N 39°13' E 009°04'0 0.0
2014-Oct-22 13:32N 39°13' E 009°04'0 0.0
2014-Oct-22 12:32N 39°13' E 009°04'0 0.0
2014-Oct-22 11:32N 39°13' E 009°04'0 0.0
2014-Oct-22 10:32N 39°13' E 009°04'0 0.0
2014-Oct-22 09:32N 39°13' E 009°04'0 0.0
2014-Oct-22 08:29N 39°13' E 009°04'0 0.0
2014-Oct-22 07:32N 39°13' E 009°04'0 0.0
2014-Oct-22 06:33N 39°13' E 009°04'1 1.0
2014-Oct-22 05:33N 39°12' E 009°05'4 4.2
2014-Oct-22 04:33N 39°08' E 009°06'5 5.2
2014-Oct-22 03:33N 39°03' E 009°08'1110.6
2014-Oct-22 02:33N 38°53' E 009°06'2 2.0
2014-Oct-22 01:32N 38°54' E 009°03'2 1.7
2014-Oct-22 00:33N 38°54' E 009°01'5 5.4
2014-Oct-21 23:32N 38°50' E 008°57'1212.2
2014-Oct-21 22:32N 38°46' E 008°42'1612.5
2014-Oct-21 21:15N 38°42' E 008°22'1115.1
2014-Oct-21 20:33N 38°39' E 008°09'  

Dump ship's entire track history